Time;durP1;ratioP1;P1;durP2;ratioP2;P2;SDS_P1;SDS_P2;PMS_P1;PMS_P2;Temp;Humidity;BMP_temperature;BMP_pressure;BME280_temperature;BME280_humidity;BME280_pressure;Samples;Min_cycle;Max_cycle;Signal;HPM_P1;HPM_P2
2021/10/15 00:00:45;;;;;;;7.13;3.50;;;;;;;11.79;81.11;101762.06;5117472;28;20103;-36
2021/10/15 00:03:10;;;;;;;5.57;3.40;;;;;;;11.82;80.63;101767.09;5117464;28;20475;-35
2021/10/15 00:05:36;;;;;;;6.73;3.73;;;;;;;11.74;80.38;101752.94;5117306;28;20032;-36
2021/10/15 00:08:01;;;;;;;7.17;3.20;;;;;;;11.65;80.40;101738.78;5117301;28;20103;-36
2021/10/15 00:10:26;;;;;;;7.77;3.77;;;;;;;11.73;81.12;101754.81;5117382;28;20019;-35
2021/10/15 00:12:52;;;;;;;6.90;3.77;;;;;;;11.76;80.99;101762.53;5117183;28;20104;-36
2021/10/15 00:15:17;;;;;;;6.83;3.60;;;;;;;11.75;80.70;101766.25;5117276;28;20027;-36
2021/10/15 00:17:43;;;;;;;7.57;4.28;;;;;;;11.76;80.55;101761.66;5117545;28;20261;-36
2021/10/15 00:20:10;;;;;;;5.72;3.38;;;;;;;11.73;80.30;101749.41;5117142;28;20038;-35
2021/10/15 00:22:35;;;;;;;7.47;3.72;;;;;;;11.71;80.18;101747.94;5117528;28;20439;-35
2021/10/15 00:25:01;;;;;;;6.73;3.33;;;;;;;11.65;80.42;101733.38;5116450;28;20027;-35
2021/10/15 00:27:26;;;;;;;5.50;3.30;;;;;;;11.69;80.62;101752.75;5117301;28;20015;-36
2021/10/15 00:29:51;;;;;;;7.63;3.67;;;;;;;11.68;81.05;101740.25;5116756;28;20172;-36
2021/10/15 00:32:17;;;;;;;8.27;3.97;;;;;;;11.65;81.13;101748.81;5116861;28;20051;-36
2021/10/15 00:34:43;;;;;;;5.75;3.53;;;;;;;11.62;80.78;101739.25;5116580;28;20020;-36
2021/10/15 00:37:08;;;;;;;7.22;4.05;;;;;;;11.59;80.97;101728.84;5117177;28;20081;-36
2021/10/15 00:39:34;;;;;;;6.82;3.60;;;;;;;11.60;81.30;101725.91;5116579;28;20019;-35
2021/10/15 00:41:59;;;;;;;6.10;4.13;;;;;;;11.56;81.65;101721.97;5116756;28;20059;-36
2021/10/15 00:44:25;;;;;;;6.83;3.90;;;;;;;11.49;81.85;101706.81;5116325;28;20020;-36
2021/10/15 00:46:50;;;;;;;6.60;4.00;;;;;;;11.43;81.96;101700.38;5116921;28;20053;-36
2021/10/15 00:49:15;;;;;;;8.17;4.50;;;;;;;11.51;82.10;101712.81;5116794;28;20383;-36
2021/10/15 00:51:42;;;;;;;9.10;3.93;;;;;;;11.44;82.68;101709.31;5116480;28;20035;-36
2021/10/15 00:54:11;;;;;;;9.13;5.00;;;;;;;11.39;82.80;101699.13;5115798;28;20269;-35
2021/10/15 00:56:37;;;;;;;10.43;4.43;;;;;;;11.33;82.98;101689.19;5115820;28;20420;-36
2021/10/15 00:59:02;;;;;;;8.32;4.65;;;;;;;11.41;83.11;101707.88;5116112;28;20027;-36
2021/10/15 01:01:29;;;;;;;10.23;4.55;;;;;;;11.28;83.30;101681.69;5116421;28;20035;-36
2021/10/15 01:03:58;;;;;;;7.63;4.47;;;;;;;11.29;83.82;101677.09;5115972;28;20444;-36
2021/10/15 01:06:23;;;;;;;7.18;4.32;;;;;;;11.32;83.73;101684.78;5115037;28;20103;-36
2021/10/15 01:08:48;;;;;;;8.37;4.47;;;;;;;11.30;84.69;101682.31;5115702;28;20480;-36
2021/10/15 01:11:15;;;;;;;6.47;4.53;;;;;;;11.29;84.00;101683.34;5116279;28;20030;-36
2021/10/15 01:13:42;;;;;;;8.93;4.63;;;;;;;11.24;84.49;101677.75;5116743;28;20392;-36
2021/10/15 01:16:10;;;;;;;8.93;4.43;;;;;;;11.25;84.66;101676.69;5115830;28;20023;-35
2021/10/15 01:18:36;;;;;;;10.23;4.70;;;;;;;11.26;84.81;101675.66;5116221;28;20118;-35
2021/10/15 01:21:04;;;;;;;8.07;4.43;;;;;;;11.23;85.14;101675.28;5115947;28;20027;-36
2021/10/15 01:23:29;;;;;;;7.97;4.65;;;;;;;11.23;85.35;101677.97;5115596;28;20066;-35
2021/10/15 01:25:55;;;;;;;6.87;4.37;;;;;;;11.25;85.37;101679.41;5115588;28;20464;-36
2021/10/15 01:28:22;;;;;;;7.88;4.80;;;;;;;11.23;85.55;101676.09;5115611;28;20254;-35
2021/10/15 01:30:47;;;;;;;9.52;4.88;;;;;;;11.23;85.69;101669.84;5115341;28;20073;-35
2021/10/15 01:33:13;;;;;;;10.13;5.03;;;;;;;11.16;85.72;101663.63;5115468;28;20062;-35
2021/10/15 01:35:39;;;;;;;7.03;4.80;;;;;;;11.21;86.11;101667.34;5096727;28;20155;-36
2021/10/15 01:38:04;;;;;;;10.57;4.63;;;;;;;11.21;85.89;101650.28;5115562;28;20298;-35
2021/10/15 01:40:30;;;;;;;9.13;4.90;;;;;;;11.10;86.26;101632.84;5115340;28;20028;-35
2021/10/15 01:42:55;;;;;;;6.65;4.38;;;;;;;11.22;86.00;101658.16;5115296;28;20349;-35
2021/10/15 01:45:26;;;;;;;6.83;5.07;;;;;;;11.21;85.99;101658.38;5115236;28;20460;-36
2021/10/15 01:47:52;;;;;;;10.63;5.30;;;;;;;11.16;86.71;101645.50;5115670;28;20114;-36
2021/10/15 01:50:18;;;;;;;8.57;4.55;;;;;;;11.21;86.43;101647.56;5114709;28;20024;-36
2021/10/15 01:52:43;;;;;;;7.88;4.63;;;;;;;11.18;86.58;101646.13;5115248;28;20019;-36
2021/10/15 01:55:10;;;;;;;9.43;4.50;;;;;;;11.21;86.64;101639.44;5114568;28;20063;-36
2021/10/15 01:57:35;;;;;;;11.15;5.50;;;;;;;11.21;86.63;101639.44;5115031;28;20168;-35
2021/10/15 02:00:06;;;;;;;8.50;4.53;;;;;;;11.19;86.64;101649.66;5114657;28;20122;-35
2021/10/15 02:02:31;;;;;;;6.78;4.88;;;;;;;11.17;86.62;101636.31;5115106;28;20096;-36
2021/10/15 02:04:57;;;;;;;11.20;5.30;;;;;;;11.21;86.68;101644.84;5115028;28;20452;-36
2021/10/15 02:07:22;;;;;;;;;;;;;;;11.24;86.52;101644.44;5115359;28;20024;-36
2021/10/15 02:09:48;;;;;;;12.33;5.83;;;;;;;11.21;86.71;101642.16;5114461;28;19980;-36
2021/10/15 02:12:13;;;;;;;7.10;5.00;;;;;;;11.21;86.86;101644.84;5115176;28;20264;-36
2021/10/15 02:14:38;;;;;;;9.60;5.07;;;;;;;11.19;86.95;101628.00;5114382;28;20051;-36
2021/10/15 02:17:05;;;;;;;10.32;5.47;;;;;;;11.20;86.69;101627.78;5114620;28;20034;-36
2021/10/15 02:19:30;;;;;;;7.97;5.18;;;;;;;11.19;87.08;101622.59;5114440;28;20049;-36
2021/10/15 02:21:56;;;;;;;10.53;5.63;;;;;;;11.17;87.03;101616.56;5114817;28;20099;-35
2021/10/15 02:24:21;;;;;;;9.13;5.30;;;;;;;11.15;87.02;101624.91;5096156;28;20106;-36
2021/10/15 02:26:47;;;;;;;8.37;4.83;;;;;;;11.13;87.13;101618.88;5114110;28;20027;-36
2021/10/15 02:29:13;;;;;;;10.03;6.13;;;;;;;11.11;87.04;101601.19;5114093;28;20102;-35
2021/10/15 02:31:38;;;;;;;9.55;5.50;;;;;;;11.14;87.24;101614.28;5114405;28;20257;-36
2021/10/15 02:34:04;;;;;;;12.33;5.23;;;;;;;11.15;87.63;101611.34;5114437;28;20515;-35
2021/10/15 02:36:29;;;;;;;10.97;5.70;;;;;;;11.10;87.88;101605.78;5114455;28;20252;-35
2021/10/15 02:38:55;;;;;;;9.63;5.75;;;;;;;11.16;87.93;101604.06;5113754;28;20038;-36
2021/10/15 02:41:20;;;;;;;10.53;6.07;;;;;;;11.16;87.92;101601.38;5114567;28;20084;-36
2021/10/15 02:43:45;;;;;;;8.23;5.60;;;;;;;11.15;88.37;101600.53;5114007;28;20363;-35
2021/10/15 02:46:15;;;;;;;9.77;5.75;;;;;;;11.04;88.14;101585.81;5114208;28;20034;-35
2021/10/15 02:48:41;;;;;;;12.15;6.10;;;;;;;11.12;88.26;101583.88;5114597;28;20016;-35
2021/10/15 02:51:06;;;;;;;9.75;5.88;;;;;;;11.13;88.09;101585.56;5114135;28;20027;-36
2021/10/15 02:53:32;;;;;;;11.13;6.47;;;;;;;11.11;88.30;101582.22;5113848;28;20467;-36
2021/10/15 02:55:57;;;;;;;10.05;6.85;;;;;;;11.13;88.58;101578.28;5113841;28;20027;-36
2021/10/15 02:58:23;;;;;;;9.27;6.40;;;;;;;11.05;88.35;101560.41;5114310;28;20027;-36
2021/10/15 03:00:50;;;;;;;9.93;6.47;;;;;;;11.14;88.38;101577.22;5113826;28;20028;-35
2021/10/15 03:03:16;;;;;;;14.68;6.70;;;;;;;11.13;88.62;101572.03;5113957;28;20249;-35
2021/10/15 03:05:41;;;;;;;12.05;7.05;;;;;;;11.07;88.47;101558.28;5114409;28;20114;-36
2021/10/15 03:08:07;;;;;;;10.85;6.18;;;;;;;11.17;88.12;101573.25;5113761;28;20094;-36
2021/10/15 03:10:32;;;;;;;11.10;6.83;;;;;;;11.14;88.38;101566.41;5114169;28;20023;-35
2021/10/15 03:12:57;;;;;;;11.88;6.38;;;;;;;11.16;88.54;101571.59;5113774;28;20118;-36
2021/10/15 03:15:23;;;;;;;11.20;7.03;;;;;;;11.14;88.17;101563.69;5113546;28;20367;-35
2021/10/15 03:17:48;;;;;;;13.43;6.73;;;;;;;11.14;88.58;101570.97;5113558;28;20614;-36
2021/10/15 03:20:13;;;;;;;12.13;6.77;;;;;;;11.12;88.46;101563.06;5113740;28;20040;-35
2021/10/15 03:22:39;;;;;;;10.83;6.87;;;;;;;11.15;88.11;101567.22;5114118;28;20463;-35
2021/10/15 03:25:04;;;;;;;14.07;7.00;;;;;;;11.13;88.42;101566.63;5095315;28;20166;-35
2021/10/15 03:27:30;;;;;;;10.80;7.00;;;;;;;11.03;88.57;101548.97;5113724;28;20023;-35
2021/10/15 03:29:55;;;;;;;12.73;6.90;;;;;;;11.11;88.54;101563.28;5113148;28;20031;-35
2021/10/15 03:32:21;;;;;;;15.17;6.57;;;;;;;11.05;88.09;101536.03;5113971;28;20335;-35
2021/10/15 03:34:46;;;;;;;11.43;5.88;;;;;;;10.99;88.53;101536.09;5113682;28;20284;-36
2021/10/15 03:37:11;;;;;;;11.93;7.05;;;;;;;11.12;88.55;101554.13;5113773;28;20023;-35
2021/10/15 03:39:37;;;;;;;10.37;7.43;;;;;;;11.09;88.83;101545.41;5113640;28;20469;-35
2021/10/15 03:42:02;;;;;;;11.43;7.00;;;;;;;11.07;88.96;101550.19;5113550;28;20392;-36
2021/10/15 03:44:28;;;;;;;11.27;6.40;;;;;;;11.08;88.97;101549.16;5113304;28;20606;-35
2021/10/15 03:46:53;;;;;;;11.77;6.63;;;;;;;10.99;88.86;101528.81;5113303;28;20476;-35
2021/10/15 03:49:18;;;;;;;12.20;6.67;;;;;;;11.10;89.11;101540.81;5113509;28;20405;-35
2021/10/15 03:51:44;;;;;;;12.10;6.90;;;;;;;11.09;89.14;101534.56;5113327;28;20016;-35
2021/10/15 03:54:09;;;;;;;12.03;6.77;;;;;;;11.10;89.20;101532.69;5113742;28;20039;-36
2021/10/15 03:56:34;;;;;;;10.67;7.23;;;;;;;11.11;89.15;101533.50;5113715;28;20019;-35
2021/10/15 03:59:00;;;;;;;9.90;6.77;;;;;;;11.00;89.25;101524.22;5113170;28;20257;-36
2021/10/15 04:01:25;;;;;;;13.33;6.80;;;;;;;11.09;89.50;101539.16;5113083;28;20031;-35
2021/10/15 04:03:51;;;;;;;10.60;6.43;;;;;;;11.11;89.62;101541.63;5112892;28;20024;-35
2021/10/15 04:06:16;;;;;;;10.67;6.53;;;;;;;11.03;89.68;101532.72;5113361;28;20026;-35
2021/10/15 04:08:41;;;;;;;10.90;7.00;;;;;;;11.12;89.72;101537.88;5113417;28;20038;-35
2021/10/15 04:11:07;;;;;;;10.15;6.90;;;;;;;11.13;89.88;101529.56;5113684;28;20016;-35
2021/10/15 04:13:32;;;;;;;14.27;7.90;;;;;;;11.06;89.88;101510.63;5112991;28;20073;-36
2021/10/15 04:16:01;;;;;;;15.37;7.97;;;;;;;11.17;89.83;101519.91;5113457;28;20047;-35
2021/10/15 04:18:27;;;;;;;12.60;6.68;;;;;;;11.17;90.07;101521.81;5113443;28;20024;-35
2021/10/15 04:20:52;;;;;;;11.35;6.93;;;;;;;11.12;nan;101518.91;5113046;28;20081;-35
2021/10/15 04:23:18;;;;;;;12.70;6.63;;;;;;;10.98;nan;101491.09;5113249;28;20072;-35
2021/10/15 04:25:44;;;;;;;12.57;7.15;;;;;;;11.19;90.08;101514.31;5112568;28;20729;-35
2021/10/15 04:28:09;;;;;;;8.27;6.53;;;;;;;11.21;90.12;101507.63;5113118;28;20023;-35
2021/10/15 04:30:35;;;;;;;13.40;7.10;;;;;;;11.24;89.90;101492.81;5113378;28;20026;-36
2021/10/15 04:33:00;;;;;;;11.20;6.97;;;;;;;11.23;89.91;101499.28;5113172;28;20024;-36
2021/10/15 04:35:25;;;;;;;13.60;7.07;;;;;;;11.22;89.95;101497.63;5112693;28;20371;-35
2021/10/15 04:37:51;;;;;;;11.25;7.28;;;;;;;11.23;90.34;101502.81;5113231;28;20020;-35
2021/10/15 04:40:16;;;;;;;12.83;7.63;;;;;;;11.24;90.37;101501.78;5094561;28;20120;-35
2021/10/15 04:42:41;;;;;;;10.20;7.27;;;;;;;11.25;90.41;101499.91;5116536;28;20026;-35
2021/10/15 04:45:08;;;;;;;10.17;7.80;;;;;;;11.24;90.79;101504.47;5116107;28;20165;-35
2021/10/15 04:47:33;;;;;;;;;;;;;;;11.31;90.38;101499.00;5116636;28;20012;-35
2021/10/15 04:49:58;;;;;;;11.87;7.07;;;;;;;11.30;90.17;101498.19;5116253;28;20358;-35
2021/10/15 04:52:23;;;;;;;14.50;8.03;;;;;;;11.31;90.33;101507.13;5115918;28;20038;-35
2021/10/15 04:54:49;;;;;;;12.03;7.23;;;;;;;11.31;90.48;101502.53;5115783;28;20028;-35
2021/10/15 04:57:14;;;;;;;11.90;8.50;;;;;;;11.32;90.53;101498.81;5116417;28;20024;-36
2021/10/15 04:59:39;;;;;;;10.63;7.00;;;;;;;11.32;90.67;101492.53;5115776;28;20023;-36
2021/10/15 05:02:05;;;;;;;13.07;7.63;;;;;;;11.32;90.70;101485.28;5116354;28;20099;-35
2021/10/15 05:04:30;;;;;;;12.40;8.40;;;;;;;11.34;90.92;101487.75;5116373;28;20024;-35
2021/10/15 05:06:58;;;;;;;13.17;7.57;;;;;;;11.34;91.20;101502.09;5116177;28;20030;-36
2021/10/15 05:09:33;;;;;;;13.07;8.18;;;;;;;11.34;90.92;101493.16;5097286;28;20118;-35
2021/10/15 05:12:00;;;;;;;12.60;8.35;;;;;;;11.33;91.28;101495.03;5115662;28;20047;-36
2021/10/15 05:14:25;;;;;;;14.70;8.70;;;;;;;11.34;91.14;101499.41;5116170;28;20051;-36
2021/10/15 05:16:52;;;;;;;14.23;8.73;;;;;;;11.35;91.31;101500.22;5115780;28;20020;-36
2021/10/15 05:19:18;;;;;;;14.93;7.93;;;;;;;11.27;91.00;101484.25;5115414;28;20027;-36
2021/10/15 05:21:43;;;;;;;13.57;8.25;;;;;;;11.29;90.80;101485.69;5115556;28;20054;-35
2021/10/15 05:24:09;;;;;;;9.67;7.13;;;;;;;11.35;91.28;101492.94;5115301;28;20030;-35
2021/10/15 05:26:34;;;;;;;11.10;7.50;;;;;;;11.36;91.26;101499.19;5115529;28;20031;-36
2021/10/15 05:28:59;;;;;;;12.73;8.63;;;;;;;11.37;91.07;101508.97;5115240;28;20019;-36
2021/10/15 05:31:25;;;;;;;11.93;8.40;;;;;;;11.38;91.22;101507.09;5115377;28;20015;-36
2021/10/15 05:33:50;;;;;;;12.10;7.97;;;;;;;11.38;91.29;101507.94;5116041;28;20027;-36
2021/10/15 05:36:16;;;;;;;9.48;6.90;;;;;;;11.30;91.70;101495.47;5116078;28;20022;-36
2021/10/15 05:38:41;;;;;;;12.77;7.82;;;;;;;11.37;91.91;101510.84;5115263;28;20019;-36
2021/10/15 05:41:06;;;;;;;13.43;8.40;;;;;;;11.35;91.96;101505.66;5115584;28;20034;-35
2021/10/15 05:43:32;;;;;;;11.67;7.73;;;;;;;11.35;91.79;101511.06;5114883;28;20019;-36
2021/10/15 05:45:57;;;;;;;12.85;8.77;;;;;;;11.37;91.71;101508.13;5114801;28;20019;-36
2021/10/15 05:48:24;;;;;;;14.43;9.10;;;;;;;11.32;91.79;101500.66;5115297;28;20051;-36
2021/10/15 05:50:49;;;;;;;12.38;8.00;;;;;;;11.35;91.61;101505.66;5114880;28;20370;-35
2021/10/15 05:53:18;;;;;;;12.83;7.63;;;;;;;11.33;92.10;101496.94;5115333;28;20052;-35
2021/10/15 06:01:13;;;;;;;14.02;8.88;;;;;;;11.37;92.76;101503.56;5032549;28;20033;-36
2021/10/15 06:03:40;;;;;;;11.27;8.43;;;;;;;11.36;92.86;101501.88;5032602;28;20120;-36
2021/10/15 06:16:57;;;;;;;14.23;9.63;;;;;;;11.37;93.31;101487.31;5031783;28;20040;-36
2021/10/15 06:19:28;;;;;;;15.25;9.85;;;;;;;11.36;93.50;101491.06;5032282;28;20060;-36
2021/10/15 06:21:54;;;;;;;16.27;9.45;;;;;;;11.38;93.51;101490.84;5032248;28;20033;-36
2021/10/15 06:24:20;;;;;;;13.75;9.32;;;;;;;11.39;93.49;101496.03;5032177;28;20116;-36
2021/10/15 06:26:45;;;;;;;;;;;;;;;11.44;92.92;101498.91;5032089;28;20140;-36
2021/10/15 06:29:11;;;;;;;12.07;9.57;;;;;;;11.41;93.34;101493.94;5031303;28;19995;-36
2021/10/15 06:31:36;;;;;;;12.43;9.43;;;;;;;11.35;93.48;101489.41;5032051;28;20041;-36
2021/10/15 06:34:02;;;;;;;12.55;9.82;;;;;;;11.44;93.68;101492.66;5031646;28;20033;-36
2021/10/15 06:36:27;;;;;;;12.90;9.88;;;;;;;11.36;93.54;101491.06;5031475;28;20377;-35
2021/10/15 06:38:53;;;;;;;15.27;11.40;;;;;;;11.45;93.69;101492.44;5092213;28;20375;-36
2021/10/15 06:41:19;;;;;;;14.87;9.97;;;;;;;11.47;93.58;101503.06;5115098;28;20250;-35
2021/10/15 06:43:44;;;;;;;;;;;;;;;11.52;92.92;101501.34;5114419;28;20031;-35
2021/10/15 06:46:10;;;;;;;14.57;10.30;;;;;;;11.42;93.98;101490.19;5114671;28;19907;-36
2021/10/15 06:48:35;;;;;;;17.98;10.88;;;;;;;11.51;93.99;101502.38;5113946;28;20258;-35
2021/10/15 06:51:01;;;;;;;19.40;11.20;;;;;;;11.54;94.08;101501.13;5114464;28;20019;-36
2021/10/15 06:53:26;;;;;;;18.50;11.57;;;;;;;11.57;94.20;101506.94;5113553;28;20595;-35
2021/10/15 06:55:52;;;;;;;15.05;11.00;;;;;;;11.57;94.33;101512.34;5114058;28;20065;-35
2021/10/15 06:58:17;;;;;;;19.25;11.07;;;;;;;11.59;94.20;101506.72;5113601;28;20034;-35
2021/10/15 07:00:43;;;;;;;15.00;11.23;;;;;;;11.56;94.29;101502.53;5114025;28;20421;-35
2021/10/15 07:03:17;;;;;;;20.85;11.57;;;;;;;11.60;94.38;101508.34;5113606;28;20682;-36
2021/10/15 07:05:43;;;;;;;15.38;10.88;;;;;;;11.63;94.42;101512.53;5113756;28;20039;-35
2021/10/15 07:08:08;;;;;;;16.83;10.32;;;;;;;11.59;94.63;101507.53;5113940;28;20024;-35
2021/10/15 07:10:33;;;;;;;15.75;11.52;;;;;;;11.67;94.60;101519.97;5114168;28;20360;-36
2021/10/15 07:12:59;;;;;;;22.57;11.13;;;;;;;11.68;94.73;101518.09;5113961;28;21546;-36
2021/10/15 07:15:24;;;;;;;14.75;11.65;;;;;;;11.70;94.85;101513.28;5114351;28;20028;-35
2021/10/15 07:17:50;;;;;;;19.75;11.60;;;;;;;11.63;95.05;101524.19;5095556;28;20047;-35
2021/10/15 07:20:15;;;;;;;18.53;11.80;;;;;;;11.71;95.49;101532.03;5113677;28;20019;-36
2021/10/15 07:22:41;;;;;;;16.25;11.68;;;;;;;11.70;95.68;101533.06;5114221;28;20260;-36
2021/10/15 07:25:07;;;;;;;21.40;13.55;;;;;;;11.70;96.51;101533.06;5113662;28;20019;-35
2021/10/15 07:27:34;;;;;;;22.30;12.57;;;;;;;11.69;96.90;101546.84;5113871;28;20127;-35
2021/10/15 07:30:01;;;;;;;15.57;12.32;;;;;;;11.68;97.27;101547.91;5113228;28;20020;-36
2021/10/15 07:32:26;;;;;;;20.02;13.05;;;;;;;11.65;97.96;101542.91;5113506;28;20042;-36
2021/10/15 07:34:51;;;;;;;17.03;13.03;;;;;;;11.49;98.33;101542.41;5113067;28;20023;-36
2021/10/15 07:37:17;;;;;;;17.73;13.47;;;;;;;11.64;98.30;101569.19;5113415;28;20034;-36
2021/10/15 07:39:42;;;;;;;21.03;14.30;;;;;;;11.58;99.11;101583.59;5113297;28;20022;-35
2021/10/15 07:42:07;;;;;;;19.73;14.90;;;;;;;11.57;100.00;101612.56;5114020;28;20027;-35
2021/10/15 07:44:33;;;;;;;14.87;11.33;;;;;;;11.52;100.00;101598.88;5114152;28;20058;-35
2021/10/15 07:46:58;;;;;;;13.63;10.43;;;;;;;11.57;100.00;101609.88;5114212;28;20077;-36
2021/10/15 07:49:24;;;;;;;11.45;8.48;;;;;;;11.54;100.00;101618.41;5113610;28;20103;-36
2021/10/15 07:51:49;;;;;;;10.93;7.17;;;;;;;11.57;100.00;101633.44;5113837;28;20051;-36
2021/10/15 07:54:15;;;;;;;10.60;8.05;;;;;;;11.58;100.00;101629.66;5114172;28;20022;-35
2021/10/15 07:56:40;;;;;;;10.40;7.30;;;;;;;11.60;100.00;101639.22;5113654;28;20459;-35
2021/10/15 07:59:06;;;;;;;10.60;7.18;;;;;;;11.55;100.00;101625.50;5113559;28;20024;-36
2021/10/15 08:01:31;;;;;;;6.65;5.10;;;;;;;11.63;100.00;101639.84;5113597;28;20049;-36
2021/10/15 08:03:59;;;;;;;6.77;4.37;;;;;;;11.63;100.00;101647.97;5113235;28;20470;-36
2021/10/15 08:06:24;;;;;;;5.47;3.60;;;;;;;11.60;100.00;101655.47;5094846;28;20042;-36
2021/10/15 08:08:51;;;;;;;5.97;3.60;;;;;;;11.58;100.00;101663.00;5113522;28;20412;-35
2021/10/15 08:11:16;;;;;;;2.60;1.42;;;;;;;11.42;100.00;101666.22;5113973;28;20076;-35
2021/10/15 08:13:42;;;;;;;3.05;0.90;;;;;;;11.41;99.44;101678.06;5113494;28;20043;-36
2021/10/15 08:16:07;;;;;;;1.93;0.40;;;;;;;11.19;98.38;101669.44;5116627;28;20027;-35
2021/10/15 08:18:32;;;;;;;2.47;0.50;;;;;;;11.21;98.45;101680.88;5117329;28;20023;-36
2021/10/15 08:20:58;;;;;;;1.70;0.50;;;;;;;11.20;97.99;101686.50;5117562;28;20035;-36
2021/10/15 08:23:26;;;;;;;1.50;0.50;;;;;;;11.16;98.06;101693.41;5117779;28;20031;-35
2021/10/15 08:25:54;;;;;;;3.50;0.65;;;;;;;11.02;98.39;101689.91;5117813;28;20027;-35
2021/10/15 08:28:19;;;;;;;4.22;0.80;;;;;;;11.09;97.22;101712.38;5117107;28;20088;-36
2021/10/15 08:30:45;;;;;;;1.58;0.60;;;;;;;11.08;97.14;101721.56;5117803;28;20023;-36
2021/10/15 08:33:10;;;;;;;3.50;0.87;;;;;;;11.11;96.38;101723.00;5116860;28;20015;-36
2021/10/15 08:35:35;;;;;;;1.47;0.60;;;;;;;11.09;96.33;101718.63;5117242;28;20103;-36
2021/10/15 08:38:00;;;;;;;2.87;0.77;;;;;;;11.05;96.20;101717.38;5116847;28;20112;-35
2021/10/15 08:40:27;;;;;;;5.47;0.87;;;;;;;11.07;96.69;101728.81;5117267;28;20059;-36
2021/10/15 08:42:56;;;;;;;3.03;1.48;;;;;;;11.08;96.42;101730.50;5116933;28;20035;-35
2021/10/15 08:45:26;;;;;;;4.90;0.60;;;;;;;11.14;96.51;101730.69;5116553;28;20016;-35
2021/10/15 08:47:52;;;;;;;3.90;0.80;;;;;;;11.18;97.22;101721.94;5117661;28;20020;-35
2021/10/15 08:50:18;;;;;;;3.15;0.85;;;;;;;11.27;96.66;101734.19;5116842;28;20026;-36
2021/10/15 08:52:43;;;;;;;3.97;0.70;;;;;;;11.29;96.39;101736.69;5117273;28;20364;-36
2021/10/15 08:55:08;;;;;;;3.50;0.70;;;;;;;11.42;97.17;101733.06;5117337;28;20019;-35
2021/10/15 08:57:34;;;;;;;3.47;0.88;;;;;;;11.44;95.95;101741.81;5116941;28;20119;-35
2021/10/15 09:00:00;;;;;;;5.20;0.95;;;;;;;11.52;96.16;101737.00;5116390;28;20027;-35
2021/10/15 09:02:26;;;;;;;6.78;1.08;;;;;;;11.51;95.46;101738.03;5116792;28;20414;-36
2021/10/15 09:04:56;;;;;;;4.35;1.02;;;;;;;11.48;95.02;101749.31;5117353;28;20019;-35
2021/10/15 09:07:24;;;;;;;5.00;1.42;;;;;;;11.52;94.79;101744.31;5116286;28;20472;-35
2021/10/15 09:10:07;;;;;;;5.93;1.10;;;;;;;11.56;95.04;101742.81;5116404;28;20023;-35
2021/10/15 09:12:42;;;;;;;3.08;0.95;;;;;;;11.58;94.47;101752.38;5116535;28;20051;-36
2021/10/15 09:15:08;;;;;;;10.80;1.98;;;;;;;11.58;93.31;101755.09;5116697;28;20043;-35
2021/10/15 09:17:41;;;;;;;4.20;1.00;;;;;;;11.57;93.13;101750.72;5116669;28;20070;-35
2021/10/15 09:20:07;;;;;;;3.65;0.90;;;;;;;11.65;94.26;101770.47;5116490;28;20102;-35
2021/10/15 09:22:34;;;;;;;6.90;1.17;;;;;;;11.71;94.79;101775.88;5116175;28;20066;-36
2021/10/15 09:25:09;;;;;;;4.55;0.98;;;;;;;11.75;94.13;101777.09;5115752;28;20027;-36
2021/10/15 09:27:38;;;;;;;3.85;1.05;;;;;;;11.77;94.23;101775.00;5115699;28;20047;-36
2021/10/15 09:30:11;;;;;;;4.28;1.25;;;;;;;11.82;94.31;101774.41;5116367;28;20146;-35
2021/10/15 09:32:39;;;;;;;5.13;1.17;;;;;;;11.82;92.71;101782.53;5116135;28;20028;-36
2021/10/15 09:35:06;;;;;;;6.72;1.38;;;;;;;11.85;94.66;101782.91;5115919;28;20047;-35
2021/10/15 09:37:34;;;;;;;6.63;1.45;;;;;;;11.90;95.10;101784.97;5116090;28;20054;-35
2021/10/15 09:40:06;;;;;;;5.65;1.30;;;;;;;11.99;93.88;101791.81;5115855;28;20024;-35
2021/10/15 09:42:33;;;;;;;6.00;1.10;;;;;;;12.02;93.55;101799.50;5115759;28;20020;-35
2021/10/15 09:45:16;;;;;;;8.88;1.52;;;;;;;12.03;92.42;101803.06;5115721;28;20027;-35
2021/10/15 09:47:52;;;;;;;6.20;1.15;;;;;;;12.11;94.16;101802.81;5115913;28;20027;-36
2021/10/15 09:50:19;;;;;;;10.07;3.08;;;;;;;12.11;92.36;101808.22;5115423;28;20051;-36
2021/10/15 09:52:49;;;;;;;7.40;1.70;;;;;;;12.08;92.12;101806.75;5115922;28;20023;-36
2021/10/15 09:55:17;;;;;;;4.90;1.23;;;;;;;12.11;91.40;101806.34;5116155;28;20020;-35
2021/10/15 09:57:45;;;;;;;4.00;0.85;;;;;;;12.23;91.17;101811.88;5115935;28;20088;-36
2021/10/15 10:00:20;;;;;;;5.38;1.23;;;;;;;12.29;91.75;101804.75;5115521;28;20344;-36
2021/10/15 10:02:46;;;;;;;4.65;1.30;;;;;;;12.26;90.75;101797.91;5115307;28;20019;-36
2021/10/15 10:05:14;;;;;;;5.15;1.23;;;;;;;12.32;89.03;101816.00;5115864;28;20039;-36
2021/10/15 10:07:42;;;;;;;5.15;1.30;;;;;;;12.41;89.40;101813.88;5115585;28;20019;-36
2021/10/15 10:10:10;;;;;;;6.82;1.35;;;;;;;12.49;89.46;101824.47;5114879;28;20023;-36
2021/10/15 10:12:37;;;;;;;13.23;2.45;;;;;;;12.53;89.09;101822.94;5115156;28;20020;-36
2021/10/15 10:15:07;;;;;;;7.22;1.48;;;;;;;12.51;89.07;101833.19;5115661;28;20050;-36
2021/10/15 10:17:40;;;;;;;8.35;1.38;;;;;;;12.48;89.02;101824.66;5114505;28;20019;-36
2021/10/15 10:20:11;;;;;;;7.90;1.65;;;;;;;12.68;89.29;101830.75;5114884;28;20083;-36
2021/10/15 10:22:45;;;;;;;7.53;1.30;;;;;;;12.82;87.84;101834.22;5115181;28;20027;-35
2021/10/15 10:25:17;;;;;;;5.90;1.63;;;;;;;12.73;86.61;101820.06;5114960;28;20031;-36
2021/10/15 10:27:43;;;;;;;7.72;1.60;;;;;;;12.74;86.86;101829.06;5115056;28;20114;-35
2021/10/15 10:30:08;;;;;;;10.10;1.90;;;;;;;12.82;87.17;101831.50;5114800;28;20020;-36
2021/10/15 10:32:34;;;;;;;6.88;2.20;;;;;;;12.98;87.44;101840.94;5114929;28;20371;-36
2021/10/15 10:35:23;;;;;;;6.83;1.77;;;;;;;13.22;87.67;101836.59;5114767;28;20070;-36
2021/10/15 10:37:50;;;;;;;7.75;1.80;;;;;;;13.34;85.93;101818.50;5114586;28;20050;-36
2021/10/15 10:40:16;;;;;;;12.90;2.00;;;;;;;13.54;85.93;101824.53;5114196;28;20062;-36
2021/10/15 10:43:03;;;;;;;5.20;1.43;;;;;;;13.59;84.41;101848.31;5114905;28;20055;-36
2021/10/15 10:45:28;;;;;;;8.52;1.83;;;;;;;13.58;83.35;101842.06;5114432;28;20059;-36
2021/10/15 10:48:03;;;;;;;6.70;1.63;;;;;;;13.63;83.88;101849.53;5115086;28;20066;-36
2021/10/15 10:50:29;;;;;;;7.47;1.63;;;;;;;13.72;79.26;101847.34;5114656;28;20024;-36
2021/10/15 10:52:54;;;;;;;5.78;1.50;;;;;;;13.82;78.11;101844.91;5114359;28;20417;-36
2021/10/15 10:55:42;;;;;;;8.53;1.87;;;;;;;13.99;80.17;101854.09;5114258;28;20027;-36
2021/10/15 10:58:36;;;;;;;6.85;1.88;;;;;;;13.91;78.91;101860.69;5114220;28;20020;-36
2021/10/15 11:01:21;;;;;;;10.70;1.73;;;;;;;13.64;78.40;101860.16;5114714;28;20023;-36
2021/10/15 11:03:47;;;;;;;7.00;1.27;;;;;;;13.70;78.77;101855.69;5114329;28;20030;-35
2021/10/15 11:06:13;;;;;;;;;;;;;;;13.88;79.86;101852.16;5114648;28;20035;-35
2021/10/15 11:08:40;;;;;;;9.30;2.33;;;;;;;13.98;74.26;101852.44;5115267;28;19904;-36
2021/10/15 11:11:22;;;;;;;7.00;1.63;;;;;;;14.19;75.06;101853.81;5113692;28;20030;-36
2021/10/15 11:13:47;;;;;;;6.40;1.48;;;;;;;14.30;71.81;101846.75;5114856;28;20116;-36
2021/10/15 11:16:26;;;;;;;8.60;1.60;;;;;;;14.33;72.73;101843.59;5113590;28;20111;-35
2021/10/15 11:18:53;;;;;;;7.95;2.20;;;;;;;14.30;71.76;101857.63;5114597;28;20024;-36
2021/10/15 11:21:20;;;;;;;11.23;1.88;;;;;;;14.33;71.09;101846.31;5113926;28;20429;-36
2021/10/15 11:23:46;;;;;;;6.00;1.33;;;;;;;14.27;70.12;101863.56;5113659;28;20026;-36
2021/10/15 11:26:13;;;;;;;6.40;1.20;;;;;;;14.16;72.72;101867.91;5096414;28;20339;-36
2021/10/15 11:28:38;;;;;;;7.82;1.40;;;;;;;14.08;71.83;101858.16;5114461;28;20039;-36
2021/10/15 11:31:08;;;;;;;10.23;2.13;;;;;;;14.08;72.89;101870.94;5114169;28;20054;-36
2021/10/15 11:33:38;;;;;;;8.50;1.58;;;;;;;14.03;70.47;101874.34;5114344;28;20276;-36
2021/10/15 11:36:04;;;;;;;7.22;1.40;;;;;;;14.23;71.49;101868.63;5113770;28;20165;-36